createdAt,value
2023-10-26T00:01:21.434Z,19.83
2023-10-26T00:03:50.950Z,20.95
2023-10-26T00:06:19.117Z,20.00
2023-10-26T00:08:47.192Z,19.02
2023-10-26T00:11:15.272Z,19.85
2023-10-26T00:13:43.274Z,20.23
2023-10-26T00:16:11.268Z,19.25
2023-10-26T00:18:39.433Z,20.10
2023-10-26T00:21:09.357Z,20.27
2023-10-26T00:23:37.430Z,19.83
2023-10-26T00:26:05.810Z,20.20
2023-10-26T00:28:33.771Z,21.00
2023-10-26T00:31:01.767Z,20.75
2023-10-26T00:33:29.812Z,20.10
2023-10-26T00:35:58.259Z,20.73
2023-10-26T00:38:27.702Z,19.35
2023-10-26T00:40:55.683Z,20.08
2023-10-26T00:43:25.354Z,18.60
2023-10-26T00:45:54.354Z,19.23
2023-10-26T00:48:26.100Z,20.33
2023-10-26T00:50:54.684Z,19.98
2023-10-26T00:53:23.237Z,19.27
2023-10-26T00:55:54.170Z,18.70
2023-10-26T00:58:26.930Z,19.00
2023-10-26T01:00:55.375Z,19.00
2023-10-26T01:03:25.883Z,17.88
2023-10-26T01:05:53.990Z,19.48
2023-10-26T01:08:22.062Z,19.45
2023-10-26T01:10:50.093Z,19.50
2023-10-26T01:13:20.129Z,19.58
2023-10-26T01:15:48.180Z,19.20
2023-10-26T01:18:16.274Z,19.58
2023-10-26T01:20:44.837Z,18.95
2023-10-26T01:23:14.198Z,19.42
2023-10-26T01:25:42.713Z,18.50
2023-10-26T01:28:11.527Z,19.90
2023-10-26T01:30:43.079Z,19.63
2023-10-26T01:33:11.255Z,20.23
2023-10-26T01:35:42.519Z,19.63
2023-10-26T01:38:10.859Z,19.42
2023-10-26T01:40:40.435Z,19.23
2023-10-26T01:43:08.521Z,18.52
2023-10-26T01:45:36.610Z,18.15
2023-10-26T01:48:05.105Z,19.05
2023-10-26T01:50:34.138Z,16.65
2023-10-26T01:53:02.174Z,17.38
2023-10-26T01:55:30.127Z,16.35
2023-10-26T01:58:00.361Z,17.20
2023-10-26T02:00:28.498Z,17.50
2023-10-26T02:02:57.311Z,17.65
2023-10-26T02:05:26.348Z,17.58
2023-10-26T02:07:54.641Z,17.65
2023-10-26T02:10:25.090Z,19.17
2023-10-26T02:12:53.081Z,16.95
2023-10-26T02:15:22.549Z,17.67
2023-10-26T02:17:50.697Z,19.58
2023-10-26T02:20:18.914Z,21.00
2023-10-26T02:22:48.029Z,19.48
2023-10-26T02:25:16.727Z,20.08
2023-10-26T02:27:44.810Z,20.20
2023-10-26T02:30:13.850Z,20.58
2023-10-26T02:32:43.314Z,21.08
2023-10-26T02:35:11.348Z,20.73
2023-10-26T02:37:40.589Z,20.60
2023-10-26T02:40:11.111Z,21.63
2023-10-26T02:42:40.283Z,21.38
2023-10-26T02:45:10.309Z,21.75
2023-10-26T02:47:39.910Z,21.65
2023-10-26T02:50:10.784Z,21.48
2023-10-26T02:52:39.449Z,21.30
2023-10-26T02:55:08.716Z,22.60
2023-10-26T02:57:36.888Z,21.70
2023-10-26T03:00:06.262Z,23.70
2023-10-26T03:02:34.371Z,23.17
2023-10-26T03:05:03.922Z,22.15
2023-10-26T03:07:33.442Z,23.40
2023-10-26T03:10:01.636Z,24.98
2023-10-26T03:12:29.910Z,25.80
2023-10-26T03:14:57.980Z,24.27
2023-10-26T03:17:26.043Z,25.53
2023-10-26T03:19:54.611Z,25.08
2023-10-26T03:22:23.667Z,24.73
2023-10-26T03:24:53.491Z,25.80
2023-10-26T03:27:21.618Z,23.85
2023-10-26T03:29:49.635Z,23.95
2023-10-26T03:32:17.755Z,24.38
2023-10-26T03:34:46.236Z,24.47
2023-10-26T03:37:14.301Z,24.50
2023-10-26T03:39:42.351Z,23.80
2023-10-26T03:42:11.816Z,23.55
2023-10-26T03:44:39.804Z,23.52
2023-10-26T03:47:08.808Z,23.47
2023-10-26T03:49:36.909Z,22.08
2023-10-26T03:52:05.460Z,22.42
2023-10-26T03:54:33.542Z,22.30
2023-10-26T03:57:01.715Z,22.77
2023-10-26T03:59:31.274Z,23.58
2023-10-26T04:01:59.843Z,22.77
2023-10-26T04:04:27.914Z,23.27
2023-10-26T04:06:55.931Z,24.05
2023-10-26T04:09:24.016Z,22.30
2023-10-26T04:11:52.079Z,22.83
2023-10-26T04:14:20.396Z,22.60
2023-10-26T04:16:51.029Z,24.17
2023-10-26T04:19:19.005Z,28.53
2023-10-26T04:21:47.374Z,27.15
2023-10-26T04:24:15.525Z,24.98
2023-10-26T04:26:44.342Z,26.50
2023-10-26T04:29:12.927Z,27.13
2023-10-26T04:31:41.029Z,28.80
2023-10-26T04:34:10.554Z,25.90
2023-10-26T04:36:38.632Z,23.33
2023-10-26T04:39:09.441Z,23.08
2023-10-26T04:41:37.496Z,23.60
2023-10-26T04:44:06.519Z,26.27
2023-10-26T04:46:34.646Z,26.27
2023-10-26T04:49:02.966Z,24.40
2023-10-26T04:51:33.667Z,25.27
2023-10-26T04:54:01.783Z,23.97
2023-10-26T04:56:29.975Z,24.20
2023-10-26T04:58:57.954Z,25.10
2023-10-26T05:01:25.973Z,28.73
2023-10-26T05:03:54.623Z,28.60
2023-10-26T05:06:22.785Z,26.58
2023-10-26T05:08:52.261Z,25.77
2023-10-26T05:11:21.474Z,26.77
2023-10-26T05:13:53.606Z,25.35
2023-10-26T05:16:22.015Z,26.27
2023-10-26T05:18:50.216Z,28.27
2023-10-26T05:21:18.356Z,26.35
2023-10-26T05:23:48.749Z,22.77
2023-10-26T05:26:18.110Z,23.38
2023-10-26T05:28:46.911Z,25.95
2023-10-26T05:31:15.429Z,24.90
2023-10-26T05:33:43.611Z,24.98
2023-10-26T05:36:12.041Z,27.52
2023-10-26T05:38:40.400Z,31.17
2023-10-26T05:41:08.442Z,27.02
2023-10-26T05:43:37.860Z,23.55
2023-10-26T05:46:07.693Z,23.77
2023-10-26T05:48:36.188Z,24.70
2023-10-26T05:51:04.444Z,25.20
2023-10-26T05:53:32.604Z,24.55
2023-10-26T05:56:01.494Z,24.92
2023-10-26T05:58:29.639Z,24.48
2023-10-26T06:00:59.222Z,27.35
2023-10-26T06:03:27.244Z,21.75
2023-10-26T06:06:00.886Z,21.67
2023-10-26T06:08:29.127Z,21.65
2023-10-26T06:10:59.339Z,21.73
2023-10-26T06:13:27.696Z,19.38
2023-10-26T06:15:55.957Z,20.02
2023-10-26T06:18:25.759Z,20.73
2023-10-26T06:21:00.421Z,20.67
2023-10-26T06:23:29.436Z,20.35
2023-10-26T06:26:01.297Z,21.50
2023-10-26T06:28:30.698Z,20.95
2023-10-26T06:31:09.947Z,21.88
2023-10-26T06:33:40.036Z,20.98
2023-10-26T06:36:09.510Z,21.38
2023-10-26T06:38:38.126Z,24.30
2023-10-26T06:41:07.019Z,21.27
2023-10-26T06:43:35.585Z,20.63
2023-10-26T06:46:03.751Z,20.23
2023-10-26T06:48:32.110Z,17.83
2023-10-26T06:51:03.266Z,17.77
2023-10-26T06:53:31.488Z,19.42
2023-10-26T06:55:59.758Z,19.98
2023-10-26T06:58:28.908Z,16.73
2023-10-26T07:00:57.057Z,17.50
2023-10-26T07:03:25.840Z,17.70
2023-10-26T07:05:54.196Z,17.92
2023-10-26T07:08:23.943Z,18.55
2023-10-26T07:10:52.171Z,17.67
2023-10-26T07:13:20.339Z,18.13
2023-10-26T07:15:48.686Z,16.38
2023-10-26T07:18:19.644Z,16.00
2023-10-26T07:20:50.511Z,17.65
2023-10-26T07:23:19.636Z,18.23
2023-10-26T07:25:53.190Z,18.45
2023-10-26T07:28:21.717Z,19.05
2023-10-26T07:30:52.719Z,19.27
2023-10-26T07:33:26.277Z,18.00
2023-10-26T07:35:56.797Z,19.38
2023-10-26T07:38:35.160Z,19.23
2023-10-26T07:41:07.575Z,17.40
2023-10-26T07:43:36.095Z,18.88
2023-10-26T07:46:04.800Z,17.65
2023-10-26T07:48:34.294Z,17.95
2023-10-26T07:51:02.993Z,17.80
2023-10-26T07:53:31.031Z,17.75
2023-10-26T07:55:59.297Z,17.30
2023-10-26T07:58:29.221Z,18.65
2023-10-26T08:00:57.324Z,16.10
2023-10-26T08:03:26.546Z,16.88
2023-10-26T08:05:58.357Z,16.15
2023-10-26T08:08:26.434Z,16.17
2023-10-26T08:10:54.531Z,14.60
2023-10-26T08:13:22.785Z,16.15
2023-10-26T08:16:28.904Z,13.90
2023-10-26T08:18:40.460Z,12.32
2023-10-26T08:21:09.507Z,13.95
2023-10-26T08:23:37.706Z,12.82
2023-10-26T08:26:09.605Z,15.05
2023-10-26T08:28:38.467Z,12.90
2023-10-26T08:31:09.072Z,13.75
2023-10-26T08:33:39.120Z,14.15
2023-10-26T08:36:07.812Z,15.25
2023-10-26T08:38:35.988Z,12.95
2023-10-26T08:41:04.120Z,13.65
2023-10-26T08:43:34.915Z,14.15
2023-10-26T08:46:04.672Z,13.95
2023-10-26T08:48:40.052Z,11.70
2023-10-26T08:51:08.589Z,12.20
2023-10-26T08:53:37.134Z,12.80
2023-10-26T08:56:05.976Z,10.75
2023-10-26T08:58:34.213Z,12.70
2023-10-26T09:01:02.685Z,10.80
2023-10-26T09:03:30.667Z,10.98
2023-10-26T09:06:00.124Z,11.30
2023-10-26T09:08:29.989Z,11.70
2023-10-26T09:10:58.081Z,10.88
2023-10-26T09:13:27.409Z,10.82
2023-10-26T09:15:58.594Z,10.40
2023-10-26T09:18:28.567Z,10.55
2023-10-26T09:21:07.227Z,9.45
2023-10-26T09:23:38.229Z,10.90
2023-10-26T09:26:09.152Z,10.50
2023-10-26T09:28:53.735Z,10.45
2023-10-26T09:31:22.254Z,10.43
2023-10-26T09:33:50.714Z,9.82
2023-10-26T09:36:22.481Z,10.25
2023-10-26T09:38:50.782Z,10.32
2023-10-26T09:41:20.937Z,10.68
2023-10-26T09:43:49.646Z,10.23
2023-10-26T09:46:19.055Z,9.75
2023-10-26T09:48:48.359Z,9.63
2023-10-26T09:51:17.668Z,9.20
2023-10-26T09:53:49.634Z,11.13
2023-10-26T09:56:23.187Z,9.95
2023-10-26T09:58:53.148Z,10.30
2023-10-26T10:01:35.306Z,12.13
2023-10-26T10:04:04.177Z,10.73
2023-10-26T10:06:52.603Z,9.80
2023-10-26T10:09:25.145Z,11.80
2023-10-26T10:12:30.631Z,10.98
2023-10-26T10:15:22.253Z,10.13
2023-10-26T10:18:06.873Z,12.23
2023-10-26T10:20:36.566Z,10.02
2023-10-26T10:23:05.885Z,9.75
2023-10-26T10:26:05.756Z,10.27
2023-10-26T10:28:55.779Z,10.02
2023-10-26T10:31:24.754Z,10.55
2023-10-26T10:34:04.650Z,10.57
2023-10-26T10:37:11.961Z,11.80
2023-10-26T10:39:40.780Z,11.13
2023-10-26T10:42:13.767Z,11.10
2023-10-26T10:44:43.727Z,9.93
2023-10-26T10:47:11.787Z,11.85
2023-10-26T10:49:39.856Z,10.55
2023-10-26T10:52:14.931Z,12.30
2023-10-26T10:55:02.901Z,12.00
2023-10-26T10:57:34.579Z,13.15
2023-10-26T11:00:02.629Z,10.80
2023-10-26T11:02:30.691Z,11.98
2023-10-26T11:05:12.859Z,12.80
2023-10-26T11:07:46.241Z,12.13
2023-10-26T11:10:14.301Z,12.07
2023-10-26T11:12:51.415Z,13.48
2023-10-26T11:15:19.660Z,12.98
2023-10-26T11:17:49.020Z,12.40
2023-10-26T11:20:38.625Z,12.68
2023-10-26T11:23:06.981Z,11.65
2023-10-26T11:25:35.080Z,13.15
2023-10-26T11:28:05.164Z,13.55
2023-10-26T11:30:48.694Z,12.98
2023-10-26T11:33:33.702Z,14.25
2023-10-26T11:36:02.318Z,14.25
2023-10-26T11:38:32.317Z,13.95
2023-10-26T11:41:00.469Z,13.90
2023-10-26T11:43:38.605Z,13.48
2023-10-26T11:46:07.262Z,14.88
2023-10-26T11:48:35.577Z,13.50
2023-10-26T11:51:07.838Z,14.75
2023-10-26T11:53:36.895Z,15.65
2023-10-26T11:56:08.393Z,15.27
2023-10-26T11:58:37.825Z,14.80
2023-10-26T12:01:07.222Z,14.60
2023-10-26T12:03:36.924Z,15.02
2023-10-26T12:06:05.116Z,14.20
2023-10-26T12:08:33.423Z,13.30
2023-10-26T12:11:01.538Z,13.73
2023-10-26T12:13:29.509Z,12.63
2023-10-26T12:15:59.007Z,12.70
2023-10-26T12:18:28.176Z,12.18
2023-10-26T12:20:56.388Z,11.57
2023-10-26T12:23:25.044Z,12.68
2023-10-26T12:25:53.567Z,12.48
2023-10-26T12:28:25.916Z,10.63
2023-10-26T12:30:55.968Z,11.15
2023-10-26T12:33:25.563Z,11.35
2023-10-26T12:35:53.547Z,11.32
2023-10-26T12:38:23.342Z,13.48
2023-10-26T12:40:51.481Z,12.32
2023-10-26T12:43:19.592Z,12.50
2023-10-26T12:45:47.688Z,11.88
2023-10-26T12:48:15.884Z,11.13
2023-10-26T12:50:45.307Z,11.93
2023-10-26T12:53:13.830Z,11.75
2023-10-26T12:55:42.049Z,13.88
2023-10-26T12:58:10.111Z,13.35
2023-10-26T13:00:38.269Z,13.60
2023-10-26T13:03:06.825Z,13.50
2023-10-26T13:05:34.824Z,13.55
2023-10-26T13:08:04.254Z,12.98
2023-10-26T13:10:32.607Z,12.60
2023-10-26T13:13:00.615Z,12.40
2023-10-26T13:15:28.784Z,13.57
2023-10-26T13:17:56.962Z,12.13
2023-10-26T13:20:27.166Z,11.05
2023-10-26T13:22:55.256Z,10.02
2023-10-26T13:25:27.125Z,10.60
2023-10-26T13:27:55.471Z,10.93
2023-10-26T13:30:23.632Z,9.82
2023-10-26T13:32:51.674Z,9.88
2023-10-26T13:35:19.701Z,10.10
2023-10-26T13:37:47.820Z,10.00
2023-10-26T13:40:15.814Z,10.20
2023-10-26T13:42:45.426Z,11.00
2023-10-26T13:45:16.221Z,10.65
2023-10-26T13:47:44.594Z,10.95
2023-10-26T13:50:12.683Z,10.13
2023-10-26T13:52:40.696Z,11.23
2023-10-26T13:55:09.282Z,11.32
2023-10-26T13:57:37.292Z,11.15
2023-10-26T14:00:10.019Z,12.13
2023-10-26T14:02:38.239Z,11.27
2023-10-26T14:05:14.853Z,12.40
2023-10-26T14:07:56.719Z,11.88
2023-10-26T14:10:25.518Z,12.32
2023-10-26T14:12:53.649Z,11.60
2023-10-26T14:15:23.261Z,12.10
2023-10-26T14:17:51.278Z,14.05
2023-10-26T14:20:19.444Z,13.70
2023-10-26T14:22:48.556Z,12.38
2023-10-26T14:25:16.598Z,13.35
2023-10-26T14:27:45.243Z,12.77
2023-10-26T14:30:14.203Z,12.93
2023-10-26T14:32:43.631Z,13.93
2023-10-26T14:35:11.627Z,14.68
2023-10-26T14:37:39.636Z,15.70
2023-10-26T14:40:09.509Z,14.40
2023-10-26T14:42:37.666Z,14.38
2023-10-26T14:45:06.607Z,15.85
2023-10-26T14:47:34.726Z,16.23
2023-10-26T14:50:04.381Z,14.63
2023-10-26T14:52:32.421Z,15.38
2023-10-26T14:55:02.595Z,18.08
2023-10-26T14:57:30.792Z,16.35
2023-10-26T14:59:58.854Z,16.15
2023-10-26T15:02:26.844Z,16.92
2023-10-26T15:04:54.902Z,16.70
2023-10-26T15:07:24.790Z,16.73
2023-10-26T15:10:23.266Z,16.27
2023-10-26T15:12:40.741Z,16.45
2023-10-26T15:15:09.398Z,16.20
2023-10-26T15:17:37.644Z,15.85
2023-10-26T15:20:07.009Z,15.23
2023-10-26T15:22:36.345Z,15.98
2023-10-26T15:25:04.751Z,16.30
2023-10-26T15:27:33.040Z,16.35
2023-10-26T15:30:01.187Z,14.45
2023-10-26T15:32:30.889Z,14.50
2023-10-26T15:34:59.215Z,15.68
2023-10-26T15:37:27.724Z,15.68
2023-10-26T15:39:57.587Z,17.42
2023-10-26T15:42:25.905Z,17.38
2023-10-26T15:44:54.058Z,21.02
2023-10-26T15:47:22.748Z,33.20
2023-10-26T15:50:10.371Z,26.95
2023-10-26T15:52:38.471Z,21.48
2023-10-26T15:55:08.497Z,20.52
2023-10-26T15:57:38.022Z,23.42
2023-10-26T16:00:10.811Z,19.17
2023-10-26T16:02:38.894Z,34.97
2023-10-26T16:05:07.542Z,51.88
2023-10-26T16:07:35.559Z,43.60
2023-10-26T16:10:03.550Z,27.65
2023-10-26T16:12:32.954Z,23.40
2023-10-26T16:15:01.100Z,24.75
2023-10-26T16:17:29.276Z,18.60
2023-10-26T16:19:59.155Z,20.58
2023-10-26T16:22:27.154Z,21.13
2023-10-26T16:24:55.123Z,23.00
2023-10-26T16:27:23.492Z,23.23
2023-10-26T16:29:53.061Z,22.08
2023-10-26T16:32:25.824Z,22.13
2023-10-26T16:34:53.821Z,19.98
2023-10-26T16:37:21.989Z,19.58
2023-10-26T16:39:50.205Z,21.15
2023-10-26T16:42:18.330Z,24.80
2023-10-26T16:44:46.445Z,23.17
2023-10-26T16:47:15.837Z,20.13
2023-10-26T16:49:43.967Z,28.08
2023-10-26T16:52:12.221Z,20.52
2023-10-26T16:54:40.289Z,20.77
2023-10-26T16:57:11.287Z,19.08
2023-10-26T16:59:39.572Z,19.10
2023-10-26T17:02:07.625Z,18.13
2023-10-26T17:04:37.085Z,13.85
2023-10-26T17:07:05.591Z,23.05
2023-10-26T17:09:33.644Z,17.10
2023-10-26T17:12:01.714Z,15.77
2023-10-26T17:14:29.724Z,17.05
2023-10-26T17:16:58.071Z,13.30
2023-10-26T17:19:26.317Z,17.00
2023-10-26T17:21:56.332Z,19.92
2023-10-26T17:24:25.002Z,16.15
2023-10-26T17:26:53.118Z,16.52
2023-10-26T17:29:21.693Z,15.82
2023-10-26T17:31:49.809Z,17.60
2023-10-26T17:34:17.860Z,14.07
2023-10-26T17:36:46.242Z,20.10
2023-10-26T17:39:15.717Z,17.65
2023-10-26T17:41:43.767Z,19.88
2023-10-26T17:44:11.776Z,24.65
2023-10-26T17:46:39.964Z,28.98
2023-10-26T17:49:08.264Z,26.52
2023-10-26T17:51:36.378Z,27.77
2023-10-26T17:54:05.306Z,26.58
2023-10-26T17:56:34.838Z,26.02
2023-10-26T17:59:02.998Z,23.95
2023-10-26T18:01:31.087Z,23.02
2023-10-26T18:03:59.144Z,23.95
2023-10-26T18:06:28.115Z,24.30
2023-10-26T18:08:56.602Z,26.52
2023-10-26T18:11:25.385Z,24.90
2023-10-26T18:13:54.730Z,26.33
2023-10-26T18:16:22.939Z,17.00
2023-10-26T18:18:51.046Z,18.67
2023-10-26T18:21:19.482Z,22.13
2023-10-26T18:23:47.473Z,25.45
2023-10-26T18:26:15.732Z,28.75
2023-10-26T18:28:45.105Z,27.50
2023-10-26T18:31:17.362Z,26.65
2023-10-26T18:33:47.299Z,28.58
2023-10-26T18:36:16.862Z,26.80
2023-10-26T18:38:45.135Z,28.40
2023-10-26T18:41:19.902Z,29.27
2023-10-26T18:43:49.375Z,30.10
2023-10-26T18:46:19.845Z,35.17
2023-10-26T18:48:48.302Z,31.80
2023-10-26T18:51:18.862Z,30.98
2023-10-26T18:53:47.251Z,30.80
2023-10-26T18:56:16.268Z,28.55
2023-10-26T18:58:44.847Z,28.73
2023-10-26T19:01:13.346Z,28.13
2023-10-26T19:03:57.440Z,24.48
2023-10-26T19:06:29.491Z,23.63
2023-10-26T19:08:57.642Z,24.15
2023-10-26T19:11:25.755Z,24.73
2023-10-26T19:13:54.273Z,29.83
2023-10-26T19:16:22.732Z,31.90
2023-10-26T19:18:52.239Z,32.03
2023-10-26T19:21:20.699Z,27.75
2023-10-26T19:23:48.651Z,28.08
2023-10-26T19:26:16.672Z,27.65
2023-10-26T19:28:44.764Z,28.90
2023-10-26T19:31:13.373Z,29.02
2023-10-26T19:33:43.535Z,26.30
2023-10-26T19:36:13.342Z,24.38
2023-10-26T19:38:41.633Z,22.20
2023-10-26T19:41:10.053Z,22.80
2023-10-26T19:43:38.014Z,21.98
2023-10-26T19:46:06.259Z,22.67
2023-10-26T19:48:34.317Z,20.60
2023-10-26T19:51:04.441Z,17.98
2023-10-26T19:53:36.814Z,11.05
2023-10-26T19:56:05.588Z,19.50
2023-10-26T19:58:33.596Z,23.27
2023-10-26T20:01:01.749Z,21.63
2023-10-26T20:03:29.866Z,22.50
2023-10-26T20:05:57.869Z,22.63
2023-10-26T20:08:25.936Z,22.98
2023-10-26T20:10:55.359Z,23.98
2023-10-26T20:13:23.376Z,24.77
2023-10-26T20:15:53.543Z,25.00
2023-10-26T20:18:21.705Z,23.67
2023-10-26T20:20:49.715Z,14.88
2023-10-26T20:23:18.114Z,16.05
2023-10-26T20:25:46.108Z,21.33
2023-10-26T20:28:17.139Z,16.00
2023-10-26T20:30:45.284Z,24.63
2023-10-26T20:33:13.358Z,15.55
2023-10-26T20:35:42.273Z,17.98
2023-10-26T20:38:11.021Z,16.85
2023-10-26T20:40:41.942Z,23.00
2023-10-26T20:43:09.950Z,21.48
2023-10-26T20:45:39.470Z,23.30
2023-10-26T20:48:07.577Z,23.48
2023-10-26T20:50:35.589Z,22.30
2023-10-26T20:53:04.520Z,18.02
2023-10-26T20:55:32.673Z,18.02
2023-10-26T20:58:01.089Z,19.77
2023-10-26T21:00:29.638Z,20.80
2023-10-26T21:02:59.104Z,15.45
2023-10-26T21:05:27.735Z,12.38
2023-10-26T21:07:56.225Z,8.90
2023-10-26T21:10:24.389Z,10.32
2023-10-26T21:12:52.652Z,9.27
2023-10-26T21:15:21.727Z,9.48
2023-10-26T21:17:49.773Z,9.65
2023-10-26T21:20:19.785Z,8.93
2023-10-26T21:22:48.677Z,8.48
2023-10-26T21:25:17.106Z,8.90
2023-10-26T21:27:45.155Z,10.23
2023-10-26T21:30:14.201Z,8.27
2023-10-26T21:32:42.307Z,8.25
2023-10-26T21:35:11.393Z,7.85
2023-10-26T21:37:40.779Z,7.95
2023-10-26T21:40:10.541Z,8.05
2023-10-26T21:42:38.815Z,7.78
2023-10-26T21:45:07.741Z,7.88
2023-10-26T21:47:35.795Z,7.07
2023-10-26T21:50:04.040Z,7.10
2023-10-26T21:52:32.116Z,11.23
2023-10-26T21:55:01.569Z,11.20
2023-10-26T21:57:29.533Z,11.55
2023-10-26T21:59:57.619Z,12.93
2023-10-26T22:02:26.102Z,12.50
2023-10-26T22:04:54.228Z,13.05
2023-10-26T22:07:22.701Z,12.57
2023-10-26T22:09:55.561Z,11.90
2023-10-26T22:12:25.485Z,12.20
2023-10-26T22:14:53.535Z,13.13
2023-10-26T22:17:21.662Z,16.88
2023-10-26T22:19:51.711Z,16.85
2023-10-26T22:22:20.025Z,13.83
2023-10-26T22:24:48.224Z,17.50
2023-10-26T22:27:16.323Z,13.50
2023-10-26T22:29:45.924Z,12.50
2023-10-26T22:32:14.112Z,13.50
2023-10-26T22:34:42.227Z,12.45
2023-10-26T22:37:10.242Z,13.27
2023-10-26T22:39:38.315Z,12.87
2023-10-26T22:42:05.722Z,13.20
2023-10-26T22:44:33.719Z,12.38
2023-10-26T22:47:03.132Z,13.43
2023-10-26T22:49:31.290Z,12.25
2023-10-26T22:51:59.441Z,14.03
2023-10-26T22:54:27.629Z,12.90
2023-10-26T22:56:55.568Z,13.17
2023-10-26T22:59:23.706Z,13.13
2023-10-26T23:01:52.616Z,12.88
2023-10-26T23:04:22.491Z,13.30
2023-10-26T23:06:50.695Z,12.60
2023-10-26T23:09:19.878Z,14.20
2023-10-26T23:11:47.841Z,13.43
2023-10-26T23:14:15.888Z,12.67
2023-10-26T23:16:49.291Z,10.87
2023-10-26T23:19:18.322Z,11.60
2023-10-26T23:21:48.817Z,11.83
2023-10-26T23:24:16.962Z,10.57
2023-10-26T23:26:45.068Z,11.37
2023-10-26T23:29:12.979Z,12.70
2023-10-26T23:31:40.985Z,9.73
2023-10-26T23:34:09.020Z,11.60
2023-10-26T23:36:37.108Z,10.80
2023-10-26T23:39:06.640Z,9.93
2023-10-26T23:41:34.709Z,10.80
2023-10-26T23:44:02.710Z,10.63
2023-10-26T23:46:30.739Z,11.40
2023-10-26T23:48:58.889Z,11.47
2023-10-26T23:51:26.953Z,10.77
2023-10-26T23:53:55.233Z,11.57
2023-10-26T23:56:24.621Z,10.43
2023-10-26T23:58:52.623Z,11.80
